Latest Weather Observations for Ivanhoe Airport

IDN60801

Issued at 6:05 am EST Thursday 2 October 2014 (issued every 30 minutes, with the page automatically refreshed every 10 minutes)

About weather observations | Map of weather stations | Latest weather observations for NSW | Other Formats
Station Details ID: 049000 Name: IVANHOE AERODROME AWS Lat: -32.88 Lon: 144.31 Height: 100.0 m
Data from the previous 72 hours. | See also: Recent months at Ivanhoe Airport
Date/Time
EST
Temp
°C
App
Temp
°C
Dew
Point
Rel
Hum
%
Delta-T
°C
Wind Press
QNH
hPa
Press
MSL
hPa
Rain
since 9 am
mm
Dir
 
Spd
km/h
Gust
km/h
Spd
kts
Gust
kts
02/06:00am 6.6 3.0 -1.8 55 3.1 S 7 9 4 5 1024.5 1024.3 0.0
02/05:30am 6.9 3.4 -1.7 54 3.2 S 7 9 4 5 1024.3 1024.1 0.0
02/05:00am 7.1 3.2 -1.8 53 3.3 S 9 11 5 6 1024.2 1024.0 0.0
02/04:30am 7.0 3.4 -2.2 52 3.4 S 7 11 4 6 1024.1 1023.9 0.0
02/04:00am 7.2 3.2 -2.5 50 3.6 S 9 11 5 6 1024.2 1024.0 0.0
02/03:30am 7.5 3.5 -2.5 49 3.7 SSW 9 9 5 5 1024.1 1023.9 0.0
02/03:00am 8.2 3.8 -2.1 48 3.9 SSW 11 13 6 7 1024.1 1023.9 0.0
02/02:30am 8.5 4.9 -2.1 47 4.0 SSW 7 9 4 5 1024.3 1024.1 0.0
02/02:00am 9.0 5.4 -2.0 46 4.2 S 7 9 4 5 1024.5 1024.3 0.0
02/01:30am 9.1 5.5 -2.2 45 4.3 S 7 9 4 5 1024.7 1024.5 0.0
02/01:00am 9.4 5.4 -2.5 43 4.5 SSW 9 11 5 6 1024.8 1024.6 0.0
02/12:30am 9.7 6.0 -2.6 42 4.7 S 7 9 4 5 1024.9 1024.7 0.0
02/12:00am 10.1 6.0 -2.9 40 4.9 S 9 11 5 6 1024.9 1024.7 0.0
 
Date/Time
EST
Temp
°C
App
Temp
°C
Dew
Point
Rel
Hum
%
Delta-T
°C
Wind Press
QNH
hPa
Press
MSL
hPa
Rain
since 9 am
mm
Dir
 
Spd
km/h
Gust
km/h
Spd
kts
Gust
kts
01/11:30pm 10.1 5.9 -3.6 38 5.1 SSW 9 11 5 6 1025.1 1024.9 0.0
01/11:00pm 10.6 6.4 -3.8 36 5.3 SSW 9 11 5 6 1025.0 1024.8 0.0
01/10:30pm 11.4 6.8 -3.9 34 5.7 S 11 13 6 7 1024.9 1024.7 0.0
01/10:00pm 12.1 7.9 -3.7 33 6.0 S 9 11 5 6 1024.9 1024.7 0.0
01/09:30pm 12.3 8.1 -3.9 32 6.1 S 9 13 5 7 1024.8 1024.6 0.0
01/09:00pm 12.9 8.3 -4.2 30 6.4 S 11 13 6 7 1024.7 1024.5 0.0
01/08:30pm 13.4 9.2 -4.2 29 6.7 S 9 11 5 6 1024.6 1024.4 0.0
01/08:00pm 14.2 9.6 -4.0 28 7.0 S 11 13 6 7 1024.5 1024.3 0.0
01/07:30pm 15.4 10.9 -3.5 27 7.5 S 11 15 6 8 1024.1 1023.9 0.0
01/07:00pm 16.2 11.3 -3.3 26 7.8 S 13 17 7 9 1023.8 1023.6 0.0
01/06:30pm 17.0 11.7 -3.7 24 8.3 S 15 24 8 13 1023.6 1023.4 0.0
01/06:00pm 17.9 12.2 -4.1 22 8.8 S 17 24 9 13 1023.4 1023.2 0.0
01/05:30pm 18.5 12.4 -3.6 22 9.0 S 19 28 10 15 1023.2 1023.0 0.0
01/05:00pm 19.0 13.0 -3.2 22 9.1 SSW 19 26 10 14 1022.9 1022.7 0.0
01/04:30pm 19.1 13.1 -3.1 22 9.2 SSW 19 26 10 14 1023.0 1022.8 0.0
01/04:00pm 19.1 12.9 -3.1 22 9.1 S 20 30 11 16 1023.1 1022.9 0.0
01/03:30pm 19.3 13.4 -2.3 23 9.1 S 19 33 10 18 1023.0 1022.8 0.0
01/03:00pm 19.1 13.5 -3.1 22 9.1 S 17 26 9 14 1023.1 1022.9 0.0
01/02:30pm 19.2 12.3 -2.4 23 9.1 SSW 24 32 13 17 1023.3 1023.1 0.0
01/02:00pm 18.7 12.2 -2.3 24 8.7 S 22 35 12 19 1023.6 1023.4 0.0
01/01:30pm 18.6 13.1 -2.3 24 8.7 S 17 28 9 15 1023.8 1023.6 0.0
01/01:00pm 18.8 12.7 -2.2 24 8.8 S 20 26 11 14 1024.2 1024.0 0.0
01/12:30pm 17.5 11.0 -2.2 26 8.2 S 22 37 12 20 1024.6 1024.4 0.0
01/12:00pm 17.8 11.8 -1.9 26 8.2 S 20 33 11 18 1024.8 1024.6 0.0
01/11:30am 17.3 10.9 -1.4 28 7.9 S 22 41 12 22 1025.0 1024.8 0.0
01/11:00am 16.8 10.5 -1.3 29 7.6 SSW 22 39 12 21 1025.2 1025.0 0.0
01/10:30am 15.9 9.3 -0.3 33 6.9 S 24 39 13 21 1025.3 1025.1 0.0
01/10:00am 15.2 8.3 0.2 36 6.4 SW 26 32 14 17 1025.4 1025.2 0.0
01/09:30am 14.8 8.7 0.6 38 6.1 S 22 35 12 19 1025.5 1025.4 0.0
01/09:00am 14.3 8.4 1.6 42 5.5 S 22 32 12 17 1025.4 1025.3 0.0
01/08:30am 13.3 7.0 1.6 45 5.1 S 24 35 13 19 1025.1 1025.0 0.0
01/08:00am 13.0 7.0 3.4 52 4.3 S 24 35 13 19 1024.8 1024.7 0.0
01/07:30am 11.9 6.6 3.2 55 3.8 S 20 35 11 19 1024.4 1024.3 0.0
01/07:00am 10.6 5.4 2.7 58 3.4 S 19 26 10 14 1024.1 1024.0 0.0
01/06:30am 9.5 5.5 2.6 62 2.9 S 13 17 7 9 1023.6 1023.5 0.0
01/06:00am 9.9 4.7 2.5 60 3.1 S 19 30 10 16 1023.0 1022.9 0.0
01/05:30am 10.6 5.2 2.4 57 3.5 S 20 30 11 16 1022.4 1022.3 0.0
01/05:00am 10.1 6.1 2.7 60 3.2 SSW 13 15 7 8 1021.9 1021.8 0.0
01/04:30am 10.1 6.4 2.5 59 3.3 SSW 11 13 6 7 1021.5 1021.4 0.0
01/04:00am 10.1 6.8 2.2 58 3.3 SSW 9 13 5 7 1021.1 1021.0 0.0
01/03:30am 11.0 7.3 2.1 54 3.8 SSW 11 13 6 7 1020.9 1020.8 0.0
01/03:00am 11.9 7.8 2.1 51 4.2 SSW 13 19 7 10 1020.7 1020.6 0.0
01/02:30am 12.6 7.7 1.9 48 4.6 SSW 17 24 9 13 1020.4 1020.3 0.0
01/02:00am 13.2 8.2 3.6 52 4.3 SSW 19 24 10 13 1020.4 1020.3 0.0
01/01:30am 13.3 9.3 5.0 57 3.9 S 15 20 8 11 1020.1 1020.0 0.0
01/01:00am 13.8 9.4 4.9 55 4.1 SSW 17 20 9 11 1019.9 1019.8 0.0
01/12:30am 14.6 9.3 4.9 52 4.6 SSW 22 30 12 16 1019.6 1019.5 0.0
01/12:00am 15.2 10.3 6.7 57 4.2 SSW 22 35 12 19 1019.4 1019.3 0.0
 
Date/Time
EST
Temp
°C
App
Temp
°C
Dew
Point
Rel
Hum
%
Delta-T
°C
Wind Press
QNH
hPa
Press
MSL
hPa
Rain
since 9 am
mm
Dir
 
Spd
km/h
Gust
km/h
Spd
kts
Gust
kts
30/11:30pm 16.1 9.6 6.5 53 4.7 SSW 30 41 16 22 1018.8 1018.7 0.0
30/11:04pm 16.2 10.4 7.9 58 4.2 SSW 28 46 15 25 1018.3 1018.2 0.0
30/11:00pm 16.4 9.9 8.1 58 4.2 SSW 32 46 17 25 1018.2 1018.1 0.0
30/10:30pm 17.0 9.2 8.2 56 4.5 SSW 39 57 21 31 1017.7 1017.5 0.0
30/10:03pm 18.4 11.6 7.8 50 5.4 SSW 33 52 18 28 1016.8 1016.6 0.0
30/10:00pm 18.6 11.4 7.7 49 5.6 SSW 35 52 19 28 1016.7 1016.5 0.0
30/09:33pm 22.2 15.3 2.8 28 9.3 SW 28 46 15 25 1015.4 1015.3 0.0
30/09:30pm 22.4 15.2 3.0 28 9.3 SW 30 46 16 25 1015.4 1015.3 0.0
30/09:15pm 23.2 16.4 3.2 27 9.7 SW 28 46 15 25 1015.0 1014.9 0.0
30/09:00pm 24.0 16.8 2.8 25 10.2 WSW 30 43 16 23 1014.6 1014.5 0.0
30/08:30pm 24.8 19.0 2.3 23 10.8 WSW 22 33 12 18 1014.0 1013.9 0.0
30/08:00pm 26.0 19.5 0.6 19 12.0 WSW 24 37 13 20 1013.3 1013.2 0.0
30/07:30pm 26.6 21.1 0.4 18 12.3 WSW 19 26 10 14 1012.7 1012.6 0.0
30/07:00pm 27.4 21.6 0.2 17 12.9 W 20 35 11 19 1012.0 1011.9 0.0
30/06:34pm 28.2 20.8 -0.9 15 13.6 W 28 46 15 25 1011.5 1011.4 0.0
30/06:30pm 28.3 21.3 -0.8 15 13.6 W 26 37 14 20 1011.4 1011.3 0.0
30/06:00pm 29.2 22.6 -0.1 15 14.0 W 24 39 13 21 1010.9 1010.8 0.0
30/05:30pm 29.9 22.1 -0.5 14 14.4 W 30 50 16 27 1010.6 1010.5 0.0
30/05:00pm 30.3 22.0 -0.1 14 14.6 W 33 56 18 30 1010.6 1010.5 0.0
30/04:30pm 30.7 22.9 -0.8 13 15.0 WNW 30 48 16 26 1010.6 1010.5 0.0
30/04:01pm 30.7 22.8 -1.9 12 15.2 W 30 48 16 26 1010.9 1010.8 0.0
30/04:00pm 30.7 22.4 -1.9 12 15.2 W 32 48 17 26 1010.9 1010.8 0.0
30/03:40pm 31.1 23.4 -2.8 11 15.6 W 28 52 15 28 1010.7 1010.6 0.0
30/03:30pm 31.2 23.8 -4.0 10 15.9 W 26 44 14 24 1010.8 1010.7 0.0
30/03:00pm 31.2 22.1 -4.0 10 15.9 W 35 46 19 25 1011.2 1011.1 0.0
30/02:36pm 31.3 23.1 -3.9 10 15.9 WNW 30 48 16 26 1011.3 1011.2 0.0
30/02:30pm 31.5 22.8 -3.8 10 16.0 NW 33 48 18 26 1011.2 1011.1 0.0
30/02:00pm 30.2 22.7 -4.8 10 15.5 W 26 35 14 19 1011.7 1011.6 0.0
30/01:30pm 30.7 21.9 -4.4 10 15.7 WNW 33 43 18 23 1012.7 1012.6 0.0
30/01:20pm 30.3 22.4 -4.7 10 15.5 W 28 46 15 25 1012.9 1012.8 0.0
30/01:00pm 29.4 23.2 -2.9 12 14.7 W 20 39 11 21 1013.2 1013.1 0.0
30/12:30pm 28.8 21.4 -3.4 12 14.4 W 26 43 14 23 1013.7 1013.6 0.0
30/12:00pm 28.3 21.8 -2.7 13 14.0 W 22 30 12 16 1014.2 1014.1 0.0
30/11:30am 27.6 21.6 -1.3 15 13.3 W 20 26 11 14 1014.5 1014.4 0.0
30/11:00am 26.2 21.1 0.8 19 12.0 W 17 26 9 14 1014.9 1014.8 0.0
30/10:30am 25.8 21.4 4.9 26 10.6 W 17 37 9 20 1015.4 1015.3 0.0
30/10:00am 24.5 20.1 4.8 28 9.9 W 17 28 9 15 1015.9 1015.8 0.0
30/09:30am 23.5 19.3 5.9 32 9.0 SW 17 22 9 12 1015.8 1015.7 0.0
30/09:00am 22.4 18.4 6.6 36 8.1 SSW 17 22 9 12 1015.6 1015.5 0.0
30/08:30am 21.2 16.6 6.7 39 7.4 SSW 20 32 11 17 1015.7 1015.6 0.0
30/08:00am 20.0 15.6 4.9 37 7.4 SW 17 26 9 14 1015.3 1015.2 0.0
30/07:30am 18.4 14.7 4.2 39 6.8 WSW 13 22 7 12 1015.0 1014.9 0.0
30/07:00am 17.0 14.0 4.0 42 6.1 W 9 11 5 6 1014.5 1014.4 0.0
30/06:30am 16.1 12.3 3.9 44 5.7 WSW 13 19 7 10 1014.1 1014.0 0.0
30/06:00am 15.9 12.0 3.4 43 5.7 NNW 13 15 7 8 1013.5 1013.4 0.0
30/05:30am 15.6 12.5 3.4 44 5.6 N 9 13 5 7 1013.1 1013.0 0.0
30/05:00am 15.7 13.0 3.5 44 5.6 W 7 7 4 4 1012.8 1012.7 0.0
30/04:30am 15.5 14.0 3.0 43 5.7 CALM 0 0 0 0 1012.6 1012.5 0.0
30/04:00am 16.5 15.1 3.6 42 6.0 CALM 0 0 0 0 1012.5 1012.4 0.0
30/03:30am 16.3 14.9 3.4 42 6.0 CALM 0 0 0 0 1012.5 1012.4 0.0
30/03:00am 17.3 14.6 2.9 38 6.6 W 6 7 3 4 1012.6 1012.5 0.0
30/02:30am 18.3 15.5 3.0 36 7.1 WSW 7 9 4 5 1012.6 1012.5 0.0
30/02:00am 19.1 16.3 3.3 35 7.4 WSW 7 9 4 5 1012.7 1012.6 0.0
30/01:30am 19.4 16.6 3.2 34 7.6 WSW 7 9 4 5 1012.8 1012.7 0.0
30/01:00am 19.8 16.6 3.1 33 7.9 SW 9 9 5 5 1013.1 1013.0 0.0
30/12:30am 19.8 17.0 3.1 33 7.9 SW 7 9 4 5 1013.1 1013.0 0.0
30/12:00am 20.3 17.5 3.1 32 8.1 WSW 7 9 4 5 1013.4 1013.3 0.0
 
Date/Time
EST
Temp
°C
App
Temp
°C
Dew
Point
Rel
Hum
%
Delta-T
°C
Wind Press
QNH
hPa
Press
MSL
hPa
Rain
since 9 am
mm
Dir
 
Spd
km/h
Gust
km/h
Spd
kts
Gust
kts
29/11:30pm 21.0 18.1 2.8 30 8.6 W 7 9 4 5 1013.4 1013.3 0.0
29/11:00pm 21.4 18.5 2.6 29 8.9 W 7 9 4 5 1013.5 1013.4 0.0
29/10:30pm 22.0 19.2 3.2 29 9.0 W 7 9 4 5 1013.6 1013.5 0.0
29/10:00pm 22.5 19.2 2.6 27 9.5 NW 9 11 5 6 1013.7 1013.6 0.0
29/09:30pm 23.0 19.8 3.0 27 9.6 WNW 9 13 5 7 1013.8 1013.7 0.0
29/09:00pm 23.0 19.7 2.5 26 9.8 WNW 9 11 5 6 1013.7 1013.6 0.0
29/08:30pm 23.5 20.2 2.4 25 10.1 NW 9 11 5 6 1013.7 1013.6 0.0
29/08:00pm 24.2 20.9 2.4 24 10.5 NW 9 11 5 6 1013.6 1013.5 0.0
29/07:30pm 24.6 21.6 2.1 23 10.8 NW 7 9 4 5 1013.4 1013.3 0.0
29/07:00pm 25.3 22.3 2.1 22 11.2 NNW 7 9 4 5 1012.9 1012.8 0.0
29/06:30pm 26.0 22.6 2.0 21 11.6 N 9 11 5 6 1012.7 1012.6 0.0
29/06:00pm 26.5 23.6 1.7 20 12.0 N 6 9 3 5 1012.6 1012.5 0.0
29/05:30pm 27.1 23.6 1.5 19 12.4 NNW 9 13 5 7 1012.5 1012.4 0.0
29/05:00pm 27.6 24.2 1.9 19 12.5 NNW 9 13 5 7 1012.3 1012.2 0.0
29/04:30pm 28.0 24.5 1.5 18 12.9 NNW 9 17 5 9 1012.2 1012.1 0.0
29/04:00pm 28.3 24.1 1.7 18 13.0 N 13 17 7 9 1012.2 1012.1 0.0
29/03:30pm 28.9 25.6 2.2 18 13.2 NE 9 20 5 11 1012.4 1012.3 0.0
29/03:00pm 28.6 25.2 2.0 18 13.1 NE 9 19 5 10 1012.6 1012.5 0.0
29/02:30pm 28.1 25.7 2.3 19 12.7 WNW 4 11 2 6 1013.0 1012.9 0.0
29/02:00pm 27.3 23.9 1.7 19 12.4 N 9 15 5 8 1013.4 1013.3 0.0
29/01:30pm 26.7 22.9 1.9 20 12.0 ENE 11 17 6 9 1013.8 1013.7 0.0
29/01:00pm 25.7 21.5 1.8 21 11.5 ESE 13 19 7 10 1014.2 1014.1 0.0
29/12:30pm 25.4 21.8 2.8 23 11.0 SE 11 24 6 13 1014.8 1014.7 0.0
29/12:00pm 24.3 19.8 1.9 23 10.7 SE 15 22 8 12 1015.3 1015.2 0.0
29/11:30am 24.1 20.1 2.9 25 10.3 SE 13 20 7 11 1015.7 1015.6 0.0
29/11:00am 23.4 19.1 3.4 27 9.7 SE 15 24 8 13 1016.0 1015.9 0.0
29/10:30am 22.7 18.6 4.2 30 9.1 SE 15 22 8 12 1016.2 1016.1 0.0
29/10:00am 21.8 17.0 4.8 33 8.4 SE 19 26 10 14 1016.6 1016.4 0.0
29/09:30am 20.2 15.1 3.9 34 7.8 SE 20 30 11 16 1016.8 1016.6 0.0
29/09:00am 19.3 14.5 4.6 38 7.1 SSE 19 26 10 14 1016.7 1016.5 0.0
29/08:30am 18.5 14.4 6.0 44 6.2 SSE 17 24 9 13 1016.5 1016.3 0.0
29/08:00am 17.2 13.3 5.5 46 5.7 SSE 15 20 8 11 1016.6 1016.4 0.0
29/07:30am 16.7 13.7 5.9 49 5.3 SSE 11 17 6 9 1016.2 1016.1 0.0
29/07:00am 15.0 12.3 5.8 54 4.4 S 9 13 5 7 1016.2 1016.1 0.0
29/06:30am 14.1 10.9 4.9 54 4.3 S 11 15 6 8 1015.8 1015.7 0.0

Other Formats:

Comma delimited format used in spreadsheet applications
http://www.bom.gov.au/fwo/IDN60801/IDN60801.95697.axf

JavaScript Object Notation format (JSON) in row-major order
http://www.bom.gov.au/fwo/IDN60801/IDN60801.95697.json